createdAt,value
2019-02-26T00:11:01.049Z,21.73
2019-02-26T00:26:10.323Z,20.63
2019-02-26T00:41:14.978Z,23.37
2019-02-26T00:56:22.795Z,24.27
2019-02-26T01:11:30.431Z,26.27
2019-02-26T01:26:36.791Z,29.37
2019-02-26T01:41:45.451Z,20.10
2019-02-26T01:56:53.451Z,19.97
2019-02-26T02:12:00.001Z,23.47
2019-02-26T02:27:07.286Z,15.20
2019-02-26T02:42:16.245Z,30.60
2019-02-26T02:57:24.303Z,20.40
2019-02-26T03:12:30.077Z,18.53
2019-02-26T03:27:37.334Z,30.63
2019-02-26T03:42:46.284Z,19.00
2019-02-26T03:57:54.432Z,25.82
2019-02-26T04:13:01.497Z,17.13
2019-02-26T04:28:36.253Z,30.13
2019-02-26T04:43:52.109Z,26.53
2019-02-26T04:58:57.645Z,28.40
2019-02-26T05:14:04.013Z,27.53
2019-02-26T05:29:12.059Z,28.60
2019-02-26T05:44:19.350Z,27.80
2019-02-26T05:59:25.662Z,26.17
2019-02-26T06:14:33.132Z,15.07
2019-02-26T06:29:40.363Z,26.63
2019-02-26T06:44:49.473Z,15.37
2019-02-26T07:00:00.630Z,25.73
2019-02-26T07:15:11.686Z,34.27
2019-02-26T07:30:15.955Z,34.73
2019-02-26T07:45:24.459Z,16.60
2019-02-26T08:00:32.881Z,27.07
2019-02-26T08:15:39.871Z,25.63
2019-02-26T08:30:47.474Z,28.53
2019-02-26T08:45:56.085Z,30.00
2019-02-26T09:01:03.903Z,20.90
2019-02-26T09:16:10.384Z,27.50
2019-02-26T09:31:16.573Z,24.77
2019-02-26T09:46:22.931Z,26.20
2019-02-26T10:01:31.293Z,29.87
2019-02-26T10:16:38.416Z,33.03
2019-02-26T10:31:44.977Z,22.93
2019-02-26T10:46:51.416Z,17.27
2019-02-26T11:01:58.576Z,13.30
2019-02-26T11:17:05.710Z,24.60
2019-02-26T11:32:15.051Z,25.20
2019-02-26T11:47:20.672Z,32.37
2019-02-26T12:02:33.397Z,30.33
2019-02-26T12:17:38.596Z,10.90
2019-02-26T12:32:47.540Z,29.53
2019-02-26T12:47:55.238Z,32.03
2019-02-26T13:03:01.682Z,31.20
2019-02-26T13:18:08.111Z,18.60
2019-02-26T13:33:17.848Z,30.07
2019-02-26T13:48:22.884Z,17.30
2019-02-26T14:03:29.367Z,21.80
2019-02-26T14:18:37.809Z,26.20
2019-02-26T14:33:44.308Z,27.20
2019-02-26T14:48:51.879Z,23.93
2019-02-26T15:03:58.705Z,21.57
2019-02-26T15:19:04.939Z,19.57
2019-02-26T15:34:11.447Z,23.83
2019-02-26T15:49:17.684Z,25.33
2019-02-26T16:04:24.427Z,23.70
2019-02-26T16:19:31.027Z,23.23
2019-02-26T16:34:37.501Z,22.50
2019-02-26T16:49:43.950Z,23.17
2019-02-26T17:04:50.434Z,21.47
2019-02-26T17:19:56.953Z,24.33
2019-02-26T17:35:03.162Z,32.00
2019-02-26T17:50:12.808Z,23.80
2019-02-26T18:05:19.131Z,24.57
2019-02-26T18:20:28.099Z,41.43
2019-02-26T18:35:33.484Z,35.50
2019-02-26T18:50:39.837Z,50.43
2019-02-26T19:05:46.076Z,36.27
2019-02-26T19:20:52.609Z,81.13
2019-02-26T19:36:00.412Z,71.70
2019-02-26T19:51:06.952Z,47.10
2019-02-26T20:06:14.423Z,53.07
2019-02-26T20:21:20.921Z,81.37
2019-02-26T20:36:27.224Z,76.13
2019-02-26T20:51:35.286Z,83.53
2019-02-26T21:06:42.075Z,42.03
2019-02-26T21:21:49.108Z,65.08
2019-02-26T21:36:57.817Z,74.83
2019-02-26T21:52:08.695Z,55.63
2019-02-26T22:07:12.728Z,37.07
2019-02-26T22:22:19.230Z,37.80
2019-02-26T22:37:25.471Z,25.33
2019-02-26T22:52:31.734Z,27.17
2019-02-26T23:07:39.402Z,31.73
2019-02-26T23:22:46.183Z,35.90
2019-02-26T23:37:53.739Z,52.17
2019-02-26T23:53:01.227Z,50.20
